sensor_id;sensor_type;location;lat;lon;timestamp;pressure;altitude;pressure_sealevel;temperature;humidity
79230;BME280;68663;49.122;17.544;2023-05-10T00:01:09;99391.09;;;23.56;45.69
79230;BME280;68663;49.122;17.544;2023-05-10T00:03:35;99393.94;;;23.56;45.77
79230;BME280;68663;49.122;17.544;2023-05-10T00:06:00;99395.91;;;23.59;45.49
79230;BME280;68663;49.122;17.544;2023-05-10T00:08:26;99388.66;;;23.58;45.71
79230;BME280;68663;49.122;17.544;2023-05-10T00:10:52;99381.44;;;23.54;45.59
79230;BME280;68663;49.122;17.544;2023-05-10T00:13:18;99372.16;;;23.53;45.68
79230;BME280;68663;49.122;17.544;2023-05-10T00:15:44;99377.44;;;23.51;45.72
79230;BME280;68663;49.122;17.544;2023-05-10T00:18:09;99370.25;;;23.46;45.70
79230;BME280;68663;49.122;17.544;2023-05-10T00:20:34;99373.44;;;23.48;45.78
79230;BME280;68663;49.122;17.544;2023-05-10T00:23:00;99367.06;;;23.44;45.73
79230;BME280;68663;49.122;17.544;2023-05-10T00:25:25;99370.19;;;23.50;45.60
79230;BME280;68663;49.122;17.544;2023-05-10T00:27:51;99362.09;;;23.52;45.57
79230;BME280;68663;49.122;17.544;2023-05-10T00:30:17;99361.31;;;23.51;45.44
79230;BME280;68663;49.122;17.544;2023-05-10T00:32:42;99358.91;;;23.50;45.68
79230;BME280;68663;49.122;17.544;2023-05-10T00:35:08;99362.97;;;23.49;45.61
79230;BME280;68663;49.122;17.544;2023-05-10T00:37:34;99358.97;;;23.46;45.64
79230;BME280;68663;49.122;17.544;2023-05-10T00:39:59;99353.38;;;23.43;45.57
79230;BME280;68663;49.122;17.544;2023-05-10T00:42:25;99351.81;;;23.38;45.76
79230;BME280;68663;49.122;17.544;2023-05-10T00:44:50;99348.56;;;23.40;45.70
79230;BME280;68663;49.122;17.544;2023-05-10T00:47:16;99344.44;;;23.48;45.51
79230;BME280;68663;49.122;17.544;2023-05-10T00:49:42;99350.06;;;23.48;45.47
79230;BME280;68663;49.122;17.544;2023-05-10T00:52:08;99338.78;;;23.48;45.66
79230;BME280;68663;49.122;17.544;2023-05-10T00:54:34;99350.06;;;23.48;45.52
79230;BME280;68663;49.122;17.544;2023-05-10T00:56:59;99332.41;;;23.44;45.54
79230;BME280;68663;49.122;17.544;2023-05-10T00:59:25;99335.22;;;23.44;45.93
79230;BME280;68663;49.122;17.544;2023-05-10T01:01:50;99344.91;;;23.43;45.73
79230;BME280;68663;49.122;17.544;2023-05-10T01:04:17;99343.31;;;23.42;45.66
79230;BME280;68663;49.122;17.544;2023-05-10T01:06:43;99344.13;;;23.42;45.73
79230;BME280;68663;49.122;17.544;2023-05-10T01:09:09;99326.78;;;23.40;45.79
79230;BME280;68663;49.122;17.544;2023-05-10T01:11:36;99342.53;;;23.38;45.63
79230;BME280;68663;49.122;17.544;2023-05-10T01:14:03;99338.13;;;23.37;45.69
79230;BME280;68663;49.122;17.544;2023-05-10T01:16:32;99327.97;;;23.43;45.74
79230;BME280;68663;49.122;17.544;2023-05-10T01:18:58;99320.75;;;23.42;45.52
79230;BME280;68663;49.122;17.544;2023-05-10T01:29:56;99319.59;;;23.36;45.72
79230;BME280;68663;49.122;17.544;2023-05-10T01:37:20;99313.91;;;23.39;45.49
79230;BME280;68663;49.122;17.544;2023-05-10T01:39:56;99314.69;;;23.40;45.60
79230;BME280;68663;49.122;17.544;2023-05-10T01:42:26;99313.97;;;23.36;45.64
79230;BME280;68663;49.122;17.544;2023-05-10T01:45:11;99309.16;;;23.33;45.69
79230;BME280;68663;49.122;17.544;2023-05-10T01:47:50;99306.78;;;23.31;45.59
79230;BME280;68663;49.122;17.544;2023-05-10T01:50:24;99307.88;;;23.37;45.57
79230;BME280;68663;49.122;17.544;2023-05-10T01:52:55;99310.69;;;23.41;45.34
79230;BME280;68663;49.122;17.544;2023-05-10T01:55:26;99311.88;;;23.40;45.35
79230;BME280;68663;49.122;17.544;2023-05-10T01:58:00;99313.09;;;23.39;45.20
79230;BME280;68663;49.122;17.544;2023-05-10T02:03:42;99297.88;;;23.33;45.50
79230;BME280;68663;49.122;17.544;2023-05-10T02:06:10;99295.91;;;23.30;45.60
79230;BME280;68663;49.122;17.544;2023-05-10T02:08:38;99298.75;;;23.30;45.68
79230;BME280;68663;49.122;17.544;2023-05-10T02:11:05;99296.78;;;23.27;45.51
79230;BME280;68663;49.122;17.544;2023-05-10T02:13:32;99298.75;;;23.30;45.65
79230;BME280;68663;49.122;17.544;2023-05-10T02:16:01;99294.59;;;23.38;45.50
79230;BME280;68663;49.122;17.544;2023-05-10T02:18:29;99286.13;;;23.38;45.49
79230;BME280;68663;49.122;17.544;2023-05-10T02:20:56;99280.91;;;23.36;45.37
79230;BME280;68663;49.122;17.544;2023-05-10T02:23:23;99284.94;;;23.35;45.39
79230;BME280;68663;49.122;17.544;2023-05-10T02:25:51;99279.72;;;23.34;45.48
79230;BME280;68663;49.122;17.544;2023-05-10T02:28:18;99285.00;;;23.32;45.45
79230;BME280;68663;49.122;17.544;2023-05-10T02:30:44;99276.16;;;23.30;45.41
79230;BME280;68663;49.122;17.544;2023-05-10T02:33:13;99278.19;;;23.29;45.65
79230;BME280;68663;49.122;17.544;2023-05-10T02:35:39;99279.31;;;23.35;45.52
79230;BME280;68663;49.122;17.544;2023-05-10T02:38:05;99276.47;;;23.35;45.40
79230;BME280;68663;49.122;17.544;2023-05-10T02:40:32;99272.88;;;23.35;45.55
79230;BME280;68663;49.122;17.544;2023-05-10T02:42:59;99268.50;;;23.30;45.47
79230;BME280;68663;49.122;17.544;2023-05-10T02:45:29;99270.59;;;23.26;45.52
79230;BME280;68663;49.122;17.544;2023-05-10T02:47:56;99265.69;;;23.30;45.51
79230;BME280;68663;49.122;17.544;2023-05-10T02:50:25;99266.78;;;23.36;45.36
79230;BME280;68663;49.122;17.544;2023-05-10T02:52:54;99272.44;;;23.36;45.49
79230;BME280;68663;49.122;17.544;2023-05-10T02:55:25;99266.44;;;23.34;45.32
79230;BME280;68663;49.122;17.544;2023-05-10T02:57:56;99276.13;;;23.33;45.33
79230;BME280;68663;49.122;17.544;2023-05-10T03:00:22;99275.78;;;23.28;45.45
79230;BME280;68663;49.122;17.544;2023-05-10T03:02:47;99279.41;;;23.28;45.50
79230;BME280;68663;49.122;17.544;2023-05-10T03:05:13;99261.75;;;23.24;45.56
79230;BME280;68663;49.122;17.544;2023-05-10T03:07:38;99263.41;;;23.22;45.57
79230;BME280;68663;49.122;17.544;2023-05-10T03:10:04;99260.84;;;23.31;45.50
79230;BME280;68663;49.122;17.544;2023-05-10T03:20:48;99268.94;;;23.29;45.34
79230;BME280;68663;49.122;17.544;2023-05-10T03:25:54;99271.06;;;23.21;45.39
79230;BME280;68663;49.122;17.544;2023-05-10T03:28:20;99268.19;;;23.25;45.54
79230;BME280;68663;49.122;17.544;2023-05-10T03:30:46;99263.72;;;23.27;45.46
79230;BME280;68663;49.122;17.544;2023-05-10T03:33:12;99272.19;;;23.27;45.28
79230;BME280;68663;49.122;17.544;2023-05-10T03:35:41;99266.97;;;23.26;45.44
79230;BME280;68663;49.122;17.544;2023-05-10T03:38:07;99269.41;;;23.24;45.46
79230;BME280;68663;49.122;17.544;2023-05-10T03:40:33;99263.81;;;23.20;45.58
79230;BME280;68663;49.122;17.544;2023-05-10T03:42:59;99268.25;;;23.21;45.94
79230;BME280;68663;49.122;17.544;2023-05-10T03:45:24;99271.22;;;23.37;45.58
79230;BME280;68663;49.122;17.544;2023-05-10T03:47:50;99268.63;;;23.50;45.37
79230;BME280;68663;49.122;17.544;2023-05-10T03:50:16;99274.53;;;23.59;45.51
79230;BME280;68663;49.122;17.544;2023-05-10T03:52:41;99270.84;;;23.62;45.55
79230;BME280;68663;49.122;17.544;2023-05-10T03:55:07;99275.41;;;23.56;45.76
79230;BME280;68663;49.122;17.544;2023-05-10T03:57:33;99273.81;;;23.55;45.97
79230;BME280;68663;49.122;17.544;2023-05-10T03:59:59;99278.22;;;23.56;46.11
79230;BME280;68663;49.122;17.544;2023-05-10T04:02:24;99276.63;;;23.55;45.88
79230;BME280;68663;49.122;17.544;2023-05-10T04:04:50;99276.50;;;23.62;45.88
79230;BME280;68663;49.122;17.544;2023-05-10T04:07:15;99276.00;;;23.67;45.89
79230;BME280;68663;49.122;17.544;2023-05-10T04:09:42;99270.59;;;23.76;45.96
79230;BME280;68663;49.122;17.544;2023-05-10T04:12:07;99270.59;;;23.76;46.03
79230;BME280;68663;49.122;17.544;2023-05-10T04:14:33;99277.19;;;23.70;46.09
79230;BME280;68663;49.122;17.544;2023-05-10T04:16:58;99277.97;;;23.70;46.18
79230;BME280;68663;49.122;17.544;2023-05-10T04:19:24;99277.25;;;23.66;46.18
79230;BME280;68663;49.122;17.544;2023-05-10T04:21:49;99284.13;;;23.65;46.33
79230;BME280;68663;49.122;17.544;2023-05-10T04:24:14;99288.91;;;23.68;46.24
79230;BME280;68663;49.122;17.544;2023-05-10T04:26:40;99294.34;;;23.79;46.18
79230;BME280;68663;49.122;17.544;2023-05-10T04:29:05;99291.09;;;23.80;46.10
79230;BME280;68663;49.122;17.544;2023-05-10T04:31:31;99300.06;;;23.75;46.09
79230;BME280;68663;49.122;17.544;2023-05-10T04:33:56;99304.47;;;23.76;46.27
79230;BME280;68663;49.122;17.544;2023-05-10T04:36:22;99309.75;;;23.74;46.31
79230;BME280;68663;49.122;17.544;2023-05-10T04:38:47;99306.56;;;23.72;46.46
79230;BME280;68663;49.122;17.544;2023-05-10T04:41:13;99315.78;;;23.76;46.57
79230;BME280;68663;49.122;17.544;2023-05-10T04:43:38;99311.59;;;23.85;46.28
79230;BME280;68663;49.122;17.544;2023-05-10T04:46:04;99314.31;;;23.92;46.15
79230;BME280;68663;49.122;17.544;2023-05-10T04:48:30;99325.28;;;23.86;46.29
79230;BME280;68663;49.122;17.544;2023-05-10T04:50:55;99325.72;;;23.85;46.45
79230;BME280;68663;49.122;17.544;2023-05-10T04:53:21;99322.09;;;23.84;46.48
79230;BME280;68663;49.122;17.544;2023-05-10T04:55:47;99327.81;;;23.80;46.49
79230;BME280;68663;49.122;17.544;2023-05-10T04:58:13;99322.22;;;23.77;46.44
79230;BME280;68663;49.122;17.544;2023-05-10T05:00:38;99321.38;;;23.80;46.37
79230;BME280;68663;49.122;17.544;2023-05-10T05:03:04;99328.53;;;23.85;46.34
79230;BME280;68663;49.122;17.544;2023-05-10T05:05:30;99322.97;;;23.81;46.26
79230;BME280;68663;49.122;17.544;2023-05-10T05:07:55;99321.44;;;23.76;46.30
79230;BME280;68663;49.122;17.544;2023-05-10T05:10:21;99326.34;;;23.72;46.48
79230;BME280;68663;49.122;17.544;2023-05-10T05:12:47;99323.56;;;23.69;46.50
79230;BME280;68663;49.122;17.544;2023-05-10T05:15:12;99324.38;;;23.69;46.59
79230;BME280;68663;49.122;17.544;2023-05-10T05:17:38;99323.19;;;23.67;46.53
79230;BME280;68663;49.122;17.544;2023-05-10T05:20:03;99325.22;;;23.66;46.46
79230;BME280;68663;49.122;17.544;2023-05-10T05:22:29;99322.41;;;23.66;46.48
79230;BME280;68663;49.122;17.544;2023-05-10T05:24:55;99323.19;;;23.67;46.34
79230;BME280;68663;49.122;17.544;2023-05-10T05:27:21;99329.66;;;23.67;46.42
79230;BME280;68663;49.122;17.544;2023-05-10T05:29:55;99331.66;;;23.67;46.46
79230;BME280;68663;49.122;17.544;2023-05-10T05:32:21;99340.19;;;23.63;45.90
79230;BME280;68663;49.122;17.544;2023-05-10T05:34:47;99329.34;;;23.62;45.05
79230;BME280;68663;49.122;17.544;2023-05-10T05:37:22;99321.78;;;23.55;43.60
79230;BME280;68663;49.122;17.544;2023-05-10T05:39:48;99321.91;;;23.44;39.14
79230;BME280;68663;49.122;17.544;2023-05-10T05:42:13;99325.09;;;23.46;40.92
79230;BME280;68663;49.122;17.544;2023-05-10T05:44:39;99325.84;;;23.50;40.20
79230;BME280;68663;49.122;17.544;2023-05-10T05:47:05;99324.69;;;23.48;39.59
79230;BME280;68663;49.122;17.544;2023-05-10T05:49:32;99324.38;;;23.42;39.26
79230;BME280;68663;49.122;17.544;2023-05-10T05:52:02;99333.34;;;23.34;38.31
79230;BME280;68663;49.122;17.544;2023-05-10T05:54:28;99331.00;;;23.29;37.71
79230;BME280;68663;49.122;17.544;2023-05-10T05:56:54;99327.16;;;23.15;36.93
79230;BME280;68663;49.122;17.544;2023-05-10T05:59:21;99334.38;;;23.16;36.68
79230;BME280;68663;49.122;17.544;2023-05-10T06:01:46;99339.22;;;23.16;36.49
79230;BME280;68663;49.122;17.544;2023-05-10T06:04:12;99334.75;;;23.18;36.88
79230;BME280;68663;49.122;17.544;2023-05-10T06:06:38;99336.38;;;23.19;36.61
79230;BME280;68663;49.122;17.544;2023-05-10T06:09:03;99343.59;;;23.20;36.57
79230;BME280;68663;49.122;17.544;2023-05-10T06:11:28;99340.03;;;23.16;36.77
79230;BME280;68663;49.122;17.544;2023-05-10T06:13:54;99332.78;;;23.15;36.87
79230;BME280;68663;49.122;17.544;2023-05-10T06:16:19;99334.38;;;23.16;36.43
79230;BME280;68663;49.122;17.544;2023-05-10T06:18:45;99341.53;;;23.25;36.81
79230;BME280;68663;49.122;17.544;2023-05-10T06:21:10;99340.00;;;23.47;37.17
79230;BME280;68663;49.122;17.544;2023-05-10T06:23:36;99349.03;;;23.65;37.25
79230;BME280;68663;49.122;17.544;2023-05-10T06:26:01;99358.56;;;23.75;37.73
79230;BME280;68663;49.122;17.544;2023-05-10T06:28:27;99352.97;;;23.71;38.07
79230;BME280;68663;49.122;17.544;2023-05-10T06:30:52;99356.47;;;23.79;38.17
79230;BME280;68663;49.122;17.544;2023-05-10T06:33:18;99350.81;;;23.79;38.47
79230;BME280;68663;49.122;17.544;2023-05-10T06:35:43;99351.94;;;23.85;38.83
79230;BME280;68663;49.122;17.544;2023-05-10T06:38:09;99346.16;;;23.92;39.08
79230;BME280;68663;49.122;17.544;2023-05-10T06:40:34;99349.22;;;24.01;39.03
79230;BME280;68663;49.122;17.544;2023-05-10T06:43:01;99352.13;;;23.98;39.22
79230;BME280;68663;49.122;17.544;2023-05-10T06:45:26;99346.91;;;23.96;39.35
79230;BME280;68663;49.122;17.544;2023-05-10T06:47:51;99341.19;;;24.00;39.39
79230;BME280;68663;49.122;17.544;2023-05-10T06:50:17;99348.44;;;24.01;39.60
79230;BME280;68663;49.122;17.544;2023-05-10T06:52:42;99347.69;;;23.97;40.06
79230;BME280;68663;49.122;17.544;2023-05-10T06:55:08;99335.47;;;24.03;40.04
79230;BME280;68663;49.122;17.544;2023-05-10T06:57:34;99339.78;;;24.11;39.82
79230;BME280;68663;49.122;17.544;2023-05-10T07:00:01;99336.88;;;24.15;40.26
79230;BME280;68663;49.122;17.544;2023-05-10T07:02:26;99333.31;;;24.11;40.25
79230;BME280;68663;49.122;17.544;2023-05-10T07:04:52;99343.41;;;24.12;40.34
79230;BME280;68663;49.122;17.544;2023-05-10T07:07:18;99332.81;;;24.16;40.58
79230;BME280;68663;49.122;17.544;2023-05-10T07:09:43;99336.88;;;24.15;40.63
79230;BME280;68663;49.122;17.544;2023-05-10T07:12:09;99340.94;;;24.14;41.08
79230;BME280;68663;49.122;17.544;2023-05-10T07:14:35;99338.78;;;24.22;41.42
79230;BME280;68663;49.122;17.544;2023-05-10T07:17:00;99338.28;;;24.30;41.22
79230;BME280;68663;49.122;17.544;2023-05-10T07:19:25;99331.47;;;24.24;41.20
79230;BME280;68663;49.122;17.544;2023-05-10T07:21:51;99332.69;;;24.23;41.22
79230;BME280;68663;49.122;17.544;2023-05-10T07:24:16;99335.47;;;24.27;41.19
79230;BME280;68663;49.122;17.544;2023-05-10T07:26:42;99340.31;;;24.26;41.40
79230;BME280;68663;49.122;17.544;2023-05-10T07:29:07;99343.94;;;24.30;41.38
79230;BME280;68663;49.122;17.544;2023-05-10T07:31:32;99343.13;;;24.30;41.50
79230;BME280;68663;49.122;17.544;2023-05-10T07:33:58;99337.13;;;24.24;41.37
79230;BME280;68663;49.122;17.544;2023-05-10T07:36:23;99329.94;;;24.20;41.68
79230;BME280;68663;49.122;17.544;2023-05-10T07:38:49;99333.63;;;24.17;41.35
79230;BME280;68663;49.122;17.544;2023-05-10T07:41:15;99321.16;;;24.14;41.79
79230;BME280;68663;49.122;17.544;2023-05-10T07:43:40;99333.69;;;24.13;41.87
79230;BME280;68663;49.122;17.544;2023-05-10T07:46:06;99329.28;;;24.12;41.92
79230;BME280;68663;49.122;17.544;2023-05-10T07:48:31;99334.56;;;24.10;41.85
79230;BME280;68663;49.122;17.544;2023-05-10T07:50:57;99343.47;;;24.08;41.99
79230;BME280;68663;49.122;17.544;2023-05-10T07:53:22;99342.66;;;24.08;42.13
79230;BME280;68663;49.122;17.544;2023-05-10T07:55:52;99340.25;;;24.06;42.19
79230;BME280;68663;49.122;17.544;2023-05-10T07:58:19;99339.47;;;24.06;42.27
79230;BME280;68663;49.122;17.544;2023-05-10T08:00:45;99329.78;;;24.07;42.25
79230;BME280;68663;49.122;17.544;2023-05-10T08:03:10;99331.00;;;24.06;42.26
79230;BME280;68663;49.122;17.544;2023-05-10T08:05:35;99342.28;;;24.06;42.45
79230;BME280;68663;49.122;17.544;2023-05-10T08:08:01;99345.13;;;24.06;42.27
79230;BME280;68663;49.122;17.544;2023-05-10T08:10:26;99338.31;;;24.03;42.45
79230;BME280;68663;49.122;17.544;2023-05-10T08:12:52;99337.50;;;24.03;42.25
79230;BME280;68663;49.122;17.544;2023-05-10T08:15:17;99344.38;;;24.02;42.45
79230;BME280;68663;49.122;17.544;2023-05-10T08:17:43;99343.59;;;24.01;42.34
79230;BME280;68663;49.122;17.544;2023-05-10T08:20:08;99346.03;;;23.99;42.49
79230;BME280;68663;49.122;17.544;2023-05-10T08:22:34;99339.59;;;23.99;42.66
79230;BME280;68663;49.122;17.544;2023-05-10T08:24:59;99338.78;;;23.98;42.83
79230;BME280;68663;49.122;17.544;2023-05-10T08:27:25;99344.88;;;23.97;43.00
79230;BME280;68663;49.122;17.544;2023-05-10T08:29:50;99347.69;;;23.97;42.84
79230;BME280;68663;49.122;17.544;2023-05-10T08:32:16;99350.16;;;23.95;42.77
79230;BME280;68663;49.122;17.544;2023-05-10T08:34:42;99345.31;;;23.95;43.04
79230;BME280;68663;49.122;17.544;2023-05-10T08:37:07;99345.31;;;23.95;43.15
79230;BME280;68663;49.122;17.544;2023-05-10T08:39:36;99348.56;;;23.94;42.97
79230;BME280;68663;49.122;17.544;2023-05-10T08:42:04;99354.56;;;23.96;43.02
79230;BME280;68663;49.122;17.544;2023-05-10T08:44:34;99348.94;;;23.96;42.88
79230;BME280;68663;49.122;17.544;2023-05-10T08:47:04;99355.00;;;23.94;42.94
79230;BME280;68663;49.122;17.544;2023-05-10T08:49:31;99350.94;;;23.95;42.93
79230;BME280;68663;49.122;17.544;2023-05-10T08:51:57;99352.97;;;23.95;42.73
79230;BME280;68663;49.122;17.544;2023-05-10T08:54:25;99354.22;;;23.94;42.77
79230;BME280;68663;49.122;17.544;2023-05-10T08:56:51;99351.00;;;23.92;43.23
79230;BME280;68663;49.122;17.544;2023-05-10T08:59:17;99350.22;;;23.91;43.00
79230;BME280;68663;49.122;17.544;2023-05-10T09:01:44;99349.03;;;23.89;43.20
79230;BME280;68663;49.122;17.544;2023-05-10T09:04:10;99350.66;;;23.90;43.35
79230;BME280;68663;49.122;17.544;2023-05-10T09:06:37;99349.41;;;23.91;43.13
79230;BME280;68663;49.122;17.544;2023-05-10T09:09:02;99354.22;;;23.94;43.32
79230;BME280;68663;49.122;17.544;2023-05-10T09:11:28;99346.03;;;23.99;43.10
79230;BME280;68663;49.122;17.544;2023-05-10T09:13:55;99336.66;;;24.06;43.14
79230;BME280;68663;49.122;17.544;2023-05-10T09:16:21;99332.03;;;24.15;42.91
79230;BME280;68663;49.122;17.544;2023-05-10T09:18:47;99327.03;;;24.23;42.83
79230;BME280;68663;49.122;17.544;2023-05-10T09:21:13;99335.09;;;24.28;42.62
79230;BME280;68663;49.122;17.544;2023-05-10T09:23:43;99335.16;;;24.21;42.75
79230;BME280;68663;49.122;17.544;2023-05-10T09:26:08;99337.56;;;24.23;42.71
79230;BME280;68663;49.122;17.544;2023-05-10T09:28:35;99339.50;;;24.29;42.47
79230;BME280;68663;49.122;17.544;2023-05-10T09:31:15;99343.13;;;24.26;42.62
79230;BME280;68663;49.122;17.544;2023-05-10T09:33:44;99350.88;;;24.22;42.42
79230;BME280;68663;49.122;17.544;2023-05-10T09:36:10;99335.16;;;24.21;42.97
79230;BME280;68663;49.122;17.544;2023-05-10T09:38:51;99338.31;;;24.27;43.01
79230;BME280;68663;49.122;17.544;2023-05-10T09:41:21;99336.25;;;24.31;43.71
79230;BME280;68663;49.122;17.544;2023-05-10T09:43:47;99340.59;;;24.35;43.25
79230;BME280;68663;49.122;17.544;2023-05-10T09:46:13;99333.34;;;24.34;43.34
79230;BME280;68663;49.122;17.544;2023-05-10T09:48:42;99326.97;;;24.30;43.54
79230;BME280;68663;49.122;17.544;2023-05-10T09:51:08;99336.63;;;24.33;43.52
79230;BME280;68663;49.122;17.544;2023-05-10T09:53:33;99336.91;;;24.38;43.37
79230;BME280;68663;49.122;17.544;2023-05-10T09:55:58;99341.34;;;24.39;43.40
79230;BME280;68663;49.122;17.544;2023-05-10T09:58:24;99341.41;;;24.36;43.51
79230;BME280;68663;49.122;17.544;2023-05-10T10:00:50;99335.44;;;24.30;43.49
79230;BME280;68663;49.122;17.544;2023-05-10T10:03:20;99330.22;;;24.25;43.27
79230;BME280;68663;49.122;17.544;2023-05-10T10:05:47;99328.28;;;24.22;42.88
79230;BME280;68663;49.122;17.544;2023-05-10T10:08:13;99326.31;;;24.19;42.88
79230;BME280;68663;49.122;17.544;2023-05-10T10:10:39;99327.19;;;24.16;42.38
79230;BME280;68663;49.122;17.544;2023-05-10T10:13:11;99329.63;;;24.14;42.30
79230;BME280;68663;49.122;17.544;2023-05-10T10:15:37;99333.69;;;24.13;41.90
79230;BME280;68663;49.122;17.544;2023-05-10T10:18:03;99330.50;;;24.11;41.13
79230;BME280;68663;49.122;17.544;2023-05-10T10:20:31;99327.69;;;24.11;40.78
79230;BME280;68663;49.122;17.544;2023-05-10T10:22:56;99330.56;;;24.07;40.47
79230;BME280;68663;49.122;17.544;2023-05-10T10:25:22;99320.88;;;24.08;40.24
79230;BME280;68663;49.122;17.544;2023-05-10T10:30:37;99304.78;;;24.05;39.96
79230;BME280;68663;49.122;17.544;2023-05-10T10:33:33;99324.19;;;24.03;38.91
79230;BME280;68663;49.122;17.544;2023-05-10T10:36:02;99315.34;;;24.01;38.77
79230;BME280;68663;49.122;17.544;2023-05-10T10:38:54;99317.00;;;23.99;38.68
79230;BME280;68663;49.122;17.544;2023-05-10T10:49:24;99317.88;;;23.96;37.34
79230;BME280;68663;49.122;17.544;2023-05-10T10:52:30;99314.66;;;23.94;37.38
79230;BME280;68663;49.122;17.544;2023-05-10T10:55:09;99309.88;;;23.91;36.99
79230;BME280;68663;49.122;17.544;2023-05-10T10:57:56;99319.94;;;23.92;36.91
79230;BME280;68663;49.122;17.544;2023-05-10T11:00:36;99309.09;;;23.90;37.45
79230;BME280;68663;49.122;17.544;2023-05-10T11:05:37;99322.78;;;23.92;36.49
79230;BME280;68663;49.122;17.544;2023-05-10T11:08:46;99319.59;;;23.90;36.16
79230;BME280;68663;49.122;17.544;2023-05-10T11:11:06;99305.09;;;23.88;35.97
79230;BME280;68663;49.122;17.544;2023-05-10T11:16:22;99306.75;;;23.85;35.96
79230;BME280;68663;49.122;17.544;2023-05-10T11:19:08;99304.38;;;23.83;36.00
79230;BME280;68663;49.122;17.544;2023-05-10T11:21:47;99300.75;;;23.83;35.92
79230;BME280;68663;49.122;17.544;2023-05-10T11:24:15;99293.94;;;23.80;36.65
79230;BME280;68663;49.122;17.544;2023-05-10T11:26:41;99293.56;;;23.78;36.58
79230;BME280;68663;49.122;17.544;2023-05-10T11:29:07;99311.78;;;23.74;36.80
79230;BME280;68663;49.122;17.544;2023-05-10T11:31:32;99305.28;;;23.77;36.94
79230;BME280;68663;49.122;17.544;2023-05-10T11:33:59;99302.88;;;23.75;36.99
79230;BME280;68663;49.122;17.544;2023-05-10T11:36:27;99300.44;;;23.77;36.79
79230;BME280;68663;49.122;17.544;2023-05-10T11:38:54;99294.06;;;23.73;36.94
79230;BME280;68663;49.122;17.544;2023-05-10T11:41:21;99301.28;;;23.74;36.76
79230;BME280;68663;49.122;17.544;2023-05-10T11:43:48;99293.25;;;23.73;36.78
79230;BME280;68663;49.122;17.544;2023-05-10T11:46:14;99298.91;;;23.73;36.78
79230;BME280;68663;49.122;17.544;2023-05-10T11:48:40;99299.34;;;23.71;36.64
79230;BME280;68663;49.122;17.544;2023-05-10T11:51:07;99304.13;;;23.74;36.26
79230;BME280;68663;49.122;17.544;2023-05-10T11:53:33;99303.75;;;23.72;36.00
79230;BME280;68663;49.122;17.544;2023-05-10T11:56:08;99290.88;;;23.71;35.99
79230;BME280;68663;49.122;17.544;2023-05-10T11:58:36;99296.50;;;23.71;36.15
79230;BME280;68663;49.122;17.544;2023-05-10T12:01:03;99286.88;;;23.69;36.21
79230;BME280;68663;49.122;17.544;2023-05-10T12:03:29;99282.88;;;23.66;36.58
79230;BME280;68663;49.122;17.544;2023-05-10T12:05:56;99288.53;;;23.66;37.05
79230;BME280;68663;49.122;17.544;2023-05-10T12:08:23;99289.75;;;23.65;37.39
79230;BME280;68663;49.122;17.544;2023-05-10T12:10:49;99288.59;;;23.63;37.07
79230;BME280;68663;49.122;17.544;2023-05-10T12:13:15;99283.75;;;23.63;37.23
79230;BME280;68663;49.122;17.544;2023-05-10T12:15:41;99288.59;;;23.63;37.08
79230;BME280;68663;49.122;17.544;2023-05-10T12:18:12;99278.09;;;23.63;37.16
79230;BME280;68663;49.122;17.544;2023-05-10T12:20:38;99293.88;;;23.61;37.04
79230;BME280;68663;49.122;17.544;2023-05-10T12:23:04;99283.81;;;23.60;37.06
79230;BME280;68663;49.122;17.544;2023-05-10T12:25:35;99280.56;;;23.61;36.88
79230;BME280;68663;49.122;17.544;2023-05-10T12:28:04;99292.63;;;23.62;36.94
79230;BME280;68663;49.122;17.544;2023-05-10T12:30:32;99292.28;;;23.60;36.62
79230;BME280;68663;49.122;17.544;2023-05-10T12:33:13;99293.50;;;23.59;36.74
79230;BME280;68663;49.122;17.544;2023-05-10T12:35:50;99288.66;;;23.59;36.59
79230;BME280;68663;49.122;17.544;2023-05-10T12:38:36;99278.25;;;23.52;36.95
79230;BME280;68663;49.122;17.544;2023-05-10T12:41:12;99283.09;;;23.52;36.96
79230;BME280;68663;49.122;17.544;2023-05-10T12:43:39;99282.72;;;23.50;38.82
79230;BME280;68663;49.122;17.544;2023-05-10T12:46:09;99281.50;;;23.51;39.23
79230;BME280;68663;49.122;17.544;2023-05-10T12:48:35;99276.66;;;23.51;39.42
79230;BME280;68663;49.122;17.544;2023-05-10T12:51:02;99268.19;;;23.51;39.51
79230;BME280;68663;49.122;17.544;2023-05-10T12:53:28;99270.19;;;23.55;39.60
79230;BME280;68663;49.122;17.544;2023-05-10T12:55:53;99277.03;;;23.54;39.37
79230;BME280;68663;49.122;17.544;2023-05-10T12:58:19;99271.81;;;23.52;39.32
79230;BME280;68663;49.122;17.544;2023-05-10T13:00:45;99264.13;;;23.52;39.28
79230;BME280;68663;49.122;17.544;2023-05-10T13:03:11;99260.53;;;23.52;39.22
79230;BME280;68663;49.122;17.544;2023-05-10T13:05:36;99268.97;;;23.52;39.25
79230;BME280;68663;49.122;17.544;2023-05-10T13:08:02;99271.44;;;23.50;38.79
79230;BME280;68663;49.122;17.544;2023-05-10T13:10:31;99260.53;;;23.52;38.65
79230;BME280;68663;49.122;17.544;2023-05-10T13:12:57;99263.78;;;23.50;38.59
79230;BME280;68663;49.122;17.544;2023-05-10T13:15:23;99264.56;;;23.51;38.60
79230;BME280;68663;49.122;17.544;2023-05-10T13:17:49;99259.72;;;23.51;38.46
79230;BME280;68663;49.122;17.544;2023-05-10T13:20:15;99259.72;;;23.51;38.26
79230;BME280;68663;49.122;17.544;2023-05-10T13:22:41;99249.22;;;23.52;38.45
79230;BME280;68663;49.122;17.544;2023-05-10T13:25:07;99257.31;;;23.50;38.61
79230;BME280;68663;49.122;17.544;2023-05-10T13:27:33;99251.69;;;23.50;38.61
79230;BME280;68663;49.122;17.544;2023-05-10T13:29:58;99260.56;;;23.48;38.53
79230;BME280;68663;49.122;17.544;2023-05-10T13:32:25;99256.16;;;23.47;38.86
79230;BME280;68663;49.122;17.544;2023-05-10T13:34:51;99253.78;;;23.46;39.14